createdAt,value
2022-08-25T00:02:03.161Z,9.10
2022-08-25T00:04:31.982Z,9.57
2022-08-25T00:07:03.466Z,7.93
2022-08-25T00:09:32.828Z,10.37
2022-08-25T00:12:01.318Z,9.00
2022-08-25T00:14:35.002Z,9.27
2022-08-25T00:17:02.811Z,10.60
2022-08-25T00:19:35.620Z,9.63
2022-08-25T00:22:06.643Z,9.83
2022-08-25T00:24:34.112Z,8.80
2022-08-25T00:27:02.165Z,10.47
2022-08-25T00:29:31.551Z,10.47
2022-08-25T00:31:59.552Z,8.97
2022-08-25T00:34:34.513Z,10.43
2022-08-25T00:37:03.707Z,8.20
2022-08-25T00:39:30.778Z,10.27
2022-08-25T00:41:58.215Z,10.13
2022-08-25T00:44:28.204Z,10.30
2022-08-25T00:47:00.902Z,7.43
2022-08-25T00:49:59.099Z,9.83
2022-08-25T00:52:32.827Z,9.00
2022-08-25T00:55:16.362Z,8.87
2022-08-25T00:58:14.368Z,9.53
2022-08-25T01:00:48.549Z,8.57
2022-08-25T01:03:19.407Z,10.83
2022-08-25T01:05:47.323Z,9.40
2022-08-25T01:08:16.355Z,10.83
2022-08-25T01:10:45.626Z,9.33
2022-08-25T01:13:27.883Z,8.33
2022-08-25T01:15:57.211Z,9.07
2022-08-25T01:18:25.904Z,9.37
2022-08-25T01:20:55.810Z,9.33
2022-08-25T01:23:24.222Z,8.87
2022-08-25T01:26:30.077Z,8.73
2022-08-25T01:29:19.503Z,8.23
2022-08-25T01:31:51.136Z,9.07
2022-08-25T01:34:20.379Z,9.10
2022-08-25T01:36:48.681Z,8.60
2022-08-25T01:39:16.166Z,8.87
2022-08-25T01:41:48.936Z,8.07
2022-08-25T01:44:19.482Z,8.80
2022-08-25T01:46:46.523Z,9.60
2022-08-25T01:49:13.542Z,12.10
2022-08-25T01:51:49.361Z,8.53
2022-08-25T01:54:16.376Z,8.27
2022-08-25T01:56:43.918Z,12.37
2022-08-25T01:59:11.265Z,13.90
2022-08-25T02:01:38.299Z,9.13
2022-08-25T02:04:06.146Z,9.70
2022-08-25T02:06:35.556Z,10.50
2022-08-25T02:09:09.247Z,8.83
2022-08-25T02:11:38.861Z,9.60
2022-08-25T02:14:07.534Z,9.47
2022-08-25T02:16:37.836Z,8.60
2022-08-25T02:19:10.283Z,9.27
2022-08-25T02:21:37.583Z,12.20
2022-08-25T02:24:06.816Z,8.90
2022-08-25T02:26:36.547Z,9.53
2022-08-25T02:29:05.896Z,9.20
2022-08-25T02:31:33.816Z,11.47
2022-08-25T02:34:02.598Z,8.67
2022-08-25T02:36:30.846Z,10.43
2022-08-25T02:38:58.444Z,11.40
2022-08-25T02:41:31.108Z,9.83
2022-08-25T02:44:04.053Z,8.80
2022-08-25T02:46:31.276Z,11.30
2022-08-25T02:48:58.744Z,10.17
2022-08-25T02:51:30.367Z,9.63
2022-08-25T02:54:02.281Z,13.00
2022-08-25T02:56:31.562Z,9.40
2022-08-25T02:59:00.517Z,8.70
2022-08-25T03:01:29.733Z,9.23
2022-08-25T03:03:58.009Z,9.17
2022-08-25T03:06:25.503Z,9.27
2022-08-25T03:08:53.515Z,9.33
2022-08-25T03:11:22.105Z,8.43
2022-08-25T03:13:51.194Z,10.60
2022-08-25T03:16:20.361Z,9.63
2022-08-25T03:18:48.577Z,13.27
2022-08-25T03:21:17.604Z,10.37
2022-08-25T03:23:46.081Z,10.13
2022-08-25T03:26:32.040Z,11.43
2022-08-25T03:28:59.393Z,11.30
2022-08-25T03:31:28.003Z,10.50
2022-08-25T03:33:56.167Z,10.77
2022-08-25T03:36:24.837Z,11.47
2022-08-25T03:38:53.302Z,11.17
2022-08-25T03:41:29.116Z,11.00
2022-08-25T03:43:57.135Z,11.73
2022-08-25T03:46:33.172Z,10.40
2022-08-25T03:49:04.203Z,11.93
2022-08-25T03:51:42.367Z,10.47
2022-08-25T03:54:11.406Z,9.80
2022-08-25T03:56:39.076Z,10.40
2022-08-25T03:59:09.502Z,10.93
2022-08-25T04:01:42.761Z,9.80
2022-08-25T04:04:12.115Z,10.47
2022-08-25T04:06:40.776Z,9.50
2022-08-25T04:09:08.755Z,9.90
2022-08-25T04:11:35.997Z,9.93
2022-08-25T04:14:05.236Z,9.30
2022-08-25T04:16:35.522Z,9.87
2022-08-25T04:19:08.552Z,11.17
2022-08-25T04:21:39.317Z,10.90
2022-08-25T04:24:11.925Z,12.70
2022-08-25T04:26:49.947Z,10.37
2022-08-25T04:29:23.787Z,10.10
2022-08-25T04:31:53.805Z,9.00
2022-08-25T04:34:29.876Z,9.87
2022-08-25T04:37:01.080Z,10.20
2022-08-25T04:39:28.883Z,12.20
2022-08-25T04:41:55.918Z,9.80
2022-08-25T04:44:22.952Z,16.40
2022-08-25T04:46:50.295Z,10.33
2022-08-25T04:49:17.481Z,10.43
2022-08-25T04:51:44.862Z,10.47
2022-08-25T04:54:21.896Z,10.63
2022-08-25T04:56:54.430Z,10.37
2022-08-25T04:59:27.357Z,9.50
2022-08-25T05:01:58.837Z,8.80
2022-08-25T05:04:28.603Z,8.40
2022-08-25T05:06:57.517Z,9.47
2022-08-25T05:09:25.805Z,9.43
2022-08-25T05:11:55.263Z,10.47
2022-08-25T05:14:26.377Z,9.57
2022-08-25T05:16:58.456Z,10.13
2022-08-25T05:19:26.560Z,11.20
2022-08-25T05:21:54.160Z,11.53
2022-08-25T05:24:22.556Z,10.67
2022-08-25T05:26:49.796Z,12.97
2022-08-25T05:29:16.952Z,11.00
2022-08-25T05:31:50.026Z,16.83
2022-08-25T05:34:19.826Z,12.40
2022-08-25T07:16:37.216Z,13.80
2022-08-25T07:19:06.180Z,14.07
2022-08-25T07:21:39.944Z,13.00
2022-08-25T07:24:13.044Z,13.10
2022-08-25T07:26:42.711Z,17.30
2022-08-25T07:29:15.752Z,12.33
2022-08-25T07:31:42.957Z,12.83
2022-08-25T07:34:29.557Z,12.13
2022-08-25T07:36:57.790Z,11.77
2022-08-25T07:39:27.022Z,11.67
2022-08-25T07:41:56.664Z,12.90
2022-08-25T07:44:28.011Z,19.47
2022-08-25T07:46:56.119Z,13.70
2022-08-25T07:49:26.780Z,11.13
2022-08-25T07:52:05.395Z,11.53
2022-08-25T07:54:37.606Z,15.43
2022-08-25T07:57:09.288Z,12.93
2022-08-25T07:59:43.829Z,12.57
2022-08-25T08:02:17.877Z,17.53
2022-08-25T08:04:49.291Z,15.13
2022-08-25T08:07:36.949Z,18.97
2022-08-25T08:13:02.304Z,13.73
2022-08-25T08:15:30.507Z,15.67
2022-08-25T08:18:01.380Z,18.73
2022-08-25T08:20:43.153Z,16.97
2022-08-25T08:23:12.020Z,15.10
2022-08-25T08:25:39.115Z,13.17
2022-08-25T08:28:07.258Z,15.13
2022-08-25T08:30:37.076Z,15.30
2022-08-25T08:33:10.189Z,14.93
2022-08-25T08:35:47.570Z,14.13
2022-08-25T08:38:20.854Z,14.67
2022-08-25T08:42:10.849Z,15.90
2022-08-25T08:44:50.919Z,13.53
2022-08-25T08:47:51.209Z,20.00
2022-08-25T08:50:34.104Z,22.03
2022-08-25T08:53:20.093Z,22.37
2022-08-25T08:56:03.419Z,18.00
2022-08-25T09:01:25.440Z,21.03
2022-08-25T09:04:13.830Z,21.80
2022-08-25T09:06:48.720Z,18.17
2022-08-25T09:09:35.727Z,18.60
2022-08-25T09:12:18.280Z,19.43
2022-08-25T09:15:13.084Z,17.47
2022-08-25T09:18:05.930Z,24.40
2022-08-25T09:20:50.489Z,22.87
2022-08-25T09:23:48.450Z,30.40
2022-08-25T09:26:41.900Z,20.80
2022-08-25T09:29:22.240Z,22.93
2022-08-25T09:31:51.263Z,22.30
2022-08-25T09:34:24.039Z,18.60
2022-08-25T09:36:53.391Z,20.50
2022-08-25T09:39:22.400Z,16.67
2022-08-25T09:41:59.157Z,17.47
2022-08-25T09:44:34.059Z,25.77
2022-08-25T09:47:20.879Z,20.03
2022-08-25T09:50:04.458Z,17.33
2022-08-25T09:52:38.708Z,23.63
2022-08-25T09:55:08.487Z,18.93
2022-08-25T09:57:46.590Z,24.83
2022-08-25T10:00:24.483Z,20.87
2022-08-25T10:03:13.537Z,22.50
2022-08-25T10:06:08.019Z,19.63
2022-08-25T10:08:57.712Z,21.57
2022-08-25T10:11:41.891Z,21.30
2022-08-25T10:14:47.500Z,18.93
2022-08-25T10:17:29.513Z,20.13
2022-08-25T10:20:25.139Z,25.57
2022-08-25T10:22:54.188Z,20.03
2022-08-25T10:25:30.399Z,20.97
2022-08-25T10:28:27.179Z,18.43
2022-08-25T10:31:22.187Z,18.93
2022-08-25T10:34:20.081Z,17.23
2022-08-25T10:37:20.699Z,23.77
2022-08-25T10:40:25.455Z,22.77
2022-08-25T10:43:41.479Z,21.07
2022-08-25T10:46:34.068Z,19.00
2022-08-25T10:49:10.301Z,18.70
2022-08-25T10:52:02.370Z,23.33
2022-08-25T10:54:54.780Z,25.80
2022-08-25T10:57:43.978Z,17.37
2022-08-25T11:00:31.287Z,19.90
2022-08-25T11:03:20.435Z,20.77
2022-08-25T11:05:58.409Z,22.10
2022-08-25T11:09:05.385Z,16.97
2022-08-25T11:11:45.539Z,18.13
2022-08-25T11:14:34.656Z,17.80
2022-08-25T11:17:14.378Z,19.30
2022-08-25T11:19:48.560Z,14.83
2022-08-25T11:22:36.208Z,18.47
2022-08-25T11:25:26.980Z,14.60
2022-08-25T11:28:26.969Z,19.13
2022-08-25T11:30:59.857Z,13.53
2022-08-25T11:33:30.800Z,15.93
2022-08-25T11:36:11.919Z,14.10
2022-08-25T11:38:58.379Z,13.90
2022-08-25T11:41:58.009Z,13.27
2022-08-25T11:44:53.393Z,13.53
2022-08-25T11:47:58.739Z,12.33
2022-08-25T11:50:33.039Z,11.53
2022-08-25T11:53:29.000Z,13.63
2022-08-25T11:56:12.719Z,10.23
2022-08-25T11:58:51.443Z,9.53
2022-08-25T12:01:40.485Z,10.57
2022-08-25T12:04:44.264Z,10.07
2022-08-25T12:07:27.359Z,10.23
2022-08-25T12:09:55.129Z,9.23
2022-08-25T12:12:38.800Z,8.50
2022-08-25T12:15:21.319Z,9.13
2022-08-25T12:18:13.839Z,8.50
2022-08-25T12:20:57.121Z,8.80
2022-08-25T12:24:10.539Z,9.03
2022-08-25T12:26:58.081Z,10.10
2022-08-25T12:29:27.139Z,9.57
2022-08-25T12:32:04.530Z,10.00
2022-08-25T12:34:48.604Z,7.13
2022-08-25T12:37:25.174Z,7.07
2022-08-25T12:39:52.196Z,8.47
2022-08-25T12:42:40.999Z,6.07
2022-08-25T12:45:30.229Z,4.95
2022-08-25T12:48:29.029Z,4.40
2022-08-25T12:51:07.030Z,10.03
2022-08-25T12:54:10.653Z,4.63
2022-08-25T12:56:47.620Z,8.50
2022-08-25T12:59:22.497Z,6.87
2022-08-25T13:02:03.130Z,6.80
2022-08-25T13:05:04.041Z,9.87
2022-08-25T13:08:04.981Z,6.70
2022-08-25T13:10:58.639Z,8.03
2022-08-25T13:14:00.770Z,11.90
2022-08-25T13:16:30.195Z,9.13
2022-08-25T13:18:59.695Z,7.03
2022-08-25T13:21:42.012Z,10.40
2022-08-25T13:24:30.799Z,8.43
2022-08-25T13:27:22.858Z,9.00
2022-08-25T13:29:55.928Z,10.00
2022-08-25T13:32:32.556Z,11.00
2022-08-25T13:35:21.970Z,9.80
2022-08-25T13:37:50.100Z,9.43
2022-08-25T13:40:33.863Z,9.67
2022-08-25T13:43:12.602Z,9.80
2022-08-25T13:45:47.378Z,13.03
2022-08-25T13:48:33.301Z,8.93
2022-08-25T13:51:23.589Z,9.27
2022-08-25T13:54:24.634Z,10.37
2022-08-25T13:56:52.280Z,12.43
2022-08-25T13:59:35.431Z,10.30
2022-08-25T14:02:15.232Z,11.17
2022-08-25T14:04:51.294Z,11.50
2022-08-25T14:07:19.383Z,17.73
2022-08-25T14:10:09.599Z,10.07
2022-08-25T14:12:49.625Z,11.90
2022-08-25T14:15:16.901Z,10.93
2022-08-25T14:18:10.280Z,9.60
2022-08-25T14:20:51.010Z,10.40
2022-08-25T14:23:27.840Z,10.97
2022-08-25T14:25:57.988Z,11.70
2022-08-25T14:28:32.251Z,13.87
2022-08-25T14:31:06.926Z,14.20
2022-08-25T14:33:53.520Z,13.57
2022-08-25T14:36:21.109Z,13.67
2022-08-25T14:38:54.870Z,15.23
2022-08-25T14:41:24.377Z,12.47
2022-08-25T14:43:51.681Z,10.23
2022-08-25T14:46:29.906Z,11.67
2022-08-25T14:49:01.366Z,13.67
2022-08-25T14:51:32.779Z,9.80
2022-08-25T14:54:08.908Z,10.37
2022-08-25T14:56:36.722Z,9.93
2022-08-25T14:59:04.884Z,10.47
2022-08-25T15:01:32.318Z,9.27
2022-08-25T15:04:09.034Z,9.37
2022-08-25T15:06:37.331Z,11.47
2022-08-25T15:09:11.455Z,9.30
2022-08-25T15:11:46.197Z,9.57
2022-08-25T15:14:19.281Z,11.50
2022-08-25T15:16:58.320Z,9.93
2022-08-25T15:19:28.487Z,11.23
2022-08-25T15:21:57.755Z,10.80
2022-08-25T15:24:27.427Z,13.83
2022-08-25T15:26:58.893Z,9.47
2022-08-25T15:29:30.286Z,8.43
2022-08-25T15:32:00.259Z,9.27
2022-08-25T15:34:30.196Z,9.00
2022-08-25T15:36:59.151Z,9.83
2022-08-25T15:39:27.757Z,10.73
2022-08-25T15:41:57.218Z,14.57
2022-08-25T15:44:29.002Z,12.23
2022-08-25T15:46:58.638Z,12.70
2022-08-25T15:49:26.836Z,9.07
2022-08-25T15:51:57.656Z,12.93
2022-08-25T15:54:26.649Z,11.17
2022-08-25T15:56:56.934Z,11.60
2022-08-25T15:59:25.387Z,11.20
2022-08-25T16:01:53.702Z,9.40
2022-08-25T16:04:26.478Z,8.93
2022-08-25T16:06:55.622Z,9.73
2022-08-25T16:09:23.604Z,10.33
2022-08-25T16:11:56.108Z,13.40
2022-08-25T16:14:24.056Z,9.57
2022-08-25T16:16:53.641Z,8.43
2022-08-25T16:19:27.036Z,9.43
2022-08-25T16:21:54.026Z,14.33
2022-08-25T16:24:21.076Z,10.60
2022-08-25T16:26:48.833Z,9.17
2022-08-25T16:29:17.705Z,11.13
2022-08-25T16:31:53.079Z,8.80
2022-08-25T16:34:20.687Z,9.90
2022-08-25T16:36:47.676Z,11.60
2022-08-25T16:39:20.682Z,10.17
2022-08-25T16:41:47.981Z,10.10
2022-08-25T16:44:16.524Z,13.40
2022-08-25T16:46:44.204Z,12.23
2022-08-25T16:49:13.828Z,14.57
2022-08-25T16:51:43.281Z,12.93
2022-08-25T16:54:30.370Z,9.13
2022-08-25T16:56:57.906Z,10.17
2022-08-25T16:59:26.676Z,9.30
2022-08-25T17:01:55.125Z,9.00
2022-08-25T17:04:31.940Z,10.33
2022-08-25T17:07:00.187Z,7.90
2022-08-25T17:09:29.696Z,10.23
2022-08-25T17:11:57.487Z,10.50
2022-08-25T17:14:25.231Z,11.33
2022-08-25T17:16:55.229Z,9.00
2022-08-25T17:19:25.921Z,8.37
2022-08-25T17:21:54.831Z,11.20
2022-08-25T17:24:29.312Z,11.33
2022-08-25T17:26:59.481Z,8.13
2022-08-25T17:29:26.676Z,10.77
2022-08-25T17:31:53.664Z,7.90
2022-08-25T17:34:23.304Z,8.80
2022-08-25T17:36:52.238Z,10.73
2022-08-25T17:39:22.355Z,10.40
2022-08-25T17:41:51.186Z,9.57
2022-08-25T17:44:20.026Z,8.87
2022-08-25T17:46:48.672Z,11.03
2022-08-25T17:49:17.536Z,8.83
2022-08-25T17:51:45.618Z,9.03
2022-08-25T17:54:13.618Z,13.73
2022-08-25T17:56:41.027Z,12.53
2022-08-25T17:59:08.461Z,9.00
2022-08-25T18:01:40.123Z,8.23
2022-08-25T18:04:17.680Z,9.47
2022-08-25T18:06:47.731Z,9.47
2022-08-25T18:09:17.515Z,13.03
2022-08-25T18:11:46.008Z,9.50
2022-08-25T18:14:16.842Z,10.27
2022-08-25T18:16:44.776Z,9.43
2022-08-25T18:19:14.468Z,8.93
2022-08-25T18:21:43.453Z,16.40
2022-08-25T18:24:11.889Z,10.47
2022-08-25T18:26:41.576Z,11.20
2022-08-25T18:29:13.018Z,17.33
2022-08-25T18:31:42.292Z,11.20
2022-08-25T18:34:11.662Z,12.77
2022-08-25T18:36:40.497Z,10.83
2022-08-25T18:39:26.511Z,8.97
2022-08-25T18:41:53.951Z,10.30
2022-08-25T18:44:21.076Z,14.80
2022-08-25T18:46:48.657Z,9.00
2022-08-25T18:49:17.576Z,10.10
2022-08-25T18:51:47.008Z,10.73
2022-08-25T18:54:22.723Z,11.03
2022-08-25T18:56:53.238Z,10.30
2022-08-25T18:59:23.664Z,9.83
2022-08-25T19:01:53.923Z,10.60
2022-08-25T19:04:28.383Z,14.20
2022-08-25T19:07:00.741Z,11.50
2022-08-25T19:09:28.238Z,9.93
2022-08-25T19:11:56.148Z,10.90
2022-08-25T19:14:23.702Z,11.20
2022-08-25T19:16:56.027Z,10.27
2022-08-25T19:19:26.669Z,11.40
2022-08-25T19:21:56.069Z,10.30
2022-08-25T19:24:25.020Z,12.53
2022-08-25T19:26:59.461Z,10.97
2022-08-25T19:29:26.680Z,11.63
2022-08-25T19:32:01.518Z,10.73
2022-08-25T19:34:36.036Z,17.83
2022-08-25T19:37:09.176Z,11.63
2022-08-25T19:39:43.402Z,9.17
2022-08-25T19:42:37.110Z,11.40
2022-08-25T19:45:13.773Z,10.13
2022-08-25T19:47:41.804Z,12.93
2022-08-25T19:50:11.953Z,12.40
2022-08-25T19:52:46.041Z,11.00
2022-08-25T19:55:17.711Z,11.20
2022-08-25T19:57:45.001Z,11.03
2022-08-25T20:00:44.729Z,9.80
2022-08-25T20:03:13.029Z,13.03
2022-08-25T20:05:40.113Z,13.23
2022-08-25T20:08:08.172Z,10.97
2022-08-25T20:10:41.972Z,13.03
2022-08-25T20:13:09.829Z,13.97
2022-08-25T20:15:38.006Z,17.73
2022-08-25T20:18:06.779Z,11.57
2022-08-25T20:20:36.042Z,14.10
2022-08-25T20:23:22.801Z,11.40
2022-08-25T20:25:51.242Z,12.33
2022-08-25T20:28:22.286Z,12.23
2022-08-25T20:30:49.999Z,13.93
2022-08-25T20:33:22.538Z,11.80
2022-08-25T20:35:53.219Z,12.07
2022-08-25T20:38:20.627Z,11.50
2022-08-25T20:40:47.721Z,11.63
2022-08-25T20:43:15.875Z,15.10
2022-08-25T20:45:42.867Z,14.57
2022-08-25T20:48:10.019Z,11.73
2022-08-25T20:50:39.891Z,13.70
2022-08-25T20:53:10.192Z,17.40
2022-08-25T20:55:43.855Z,11.50
2022-08-25T20:58:14.192Z,13.73
2022-08-25T21:00:43.174Z,15.80
2022-08-25T21:03:10.942Z,11.87
2022-08-25T21:05:43.333Z,12.33
2022-08-25T21:08:11.406Z,12.30
2022-08-25T21:10:38.438Z,11.87
2022-08-25T21:13:06.454Z,13.40
2022-08-25T21:15:33.443Z,12.60
2022-08-25T21:18:00.700Z,12.73
2022-08-25T21:20:27.726Z,15.03
2022-08-25T21:22:54.869Z,12.70
2022-08-25T21:25:22.975Z,11.47
2022-08-25T21:27:50.048Z,13.67
2022-08-25T21:30:17.657Z,12.40
2022-08-25T21:32:52.909Z,13.30
2022-08-25T21:35:23.428Z,13.00
2022-08-25T21:37:53.254Z,15.40
2022-08-25T21:40:23.381Z,15.13
2022-08-25T21:42:52.451Z,13.30
2022-08-25T21:45:20.980Z,14.57
2022-08-25T21:47:49.501Z,13.63
2022-08-25T21:50:16.561Z,14.60
2022-08-25T21:52:43.589Z,14.50
2022-08-25T21:55:16.024Z,15.83
2022-08-25T21:57:44.328Z,13.90
2022-08-25T22:00:14.272Z,15.87
2022-08-25T22:02:46.233Z,16.10
2022-08-25T22:05:13.391Z,21.33
2022-08-25T22:07:44.169Z,18.50
2022-08-25T22:10:17.961Z,16.90
2022-08-25T22:12:47.951Z,16.40
2022-08-25T22:15:17.931Z,17.30
2022-08-25T22:17:48.032Z,22.20
2022-08-25T22:20:18.465Z,20.53
2022-08-25T22:22:45.451Z,15.97
2022-08-25T22:25:13.541Z,17.17
2022-08-25T22:27:40.642Z,16.23
2022-08-25T22:30:09.071Z,16.80
2022-08-25T22:32:36.097Z,18.37
2022-08-25T22:35:03.236Z,16.17
2022-08-25T22:37:30.906Z,17.33
2022-08-25T22:40:02.693Z,18.07
2022-08-25T22:42:29.916Z,18.47
2022-08-25T22:44:56.923Z,17.43
2022-08-25T22:47:23.987Z,21.23
2022-08-25T22:49:55.588Z,16.07
2022-08-25T22:52:32.009Z,15.53
2022-08-25T22:55:02.996Z,17.83
2022-08-25T22:57:30.057Z,18.53
2022-08-25T22:59:59.450Z,16.87
2022-08-25T23:02:30.200Z,14.87
2022-08-25T23:04:58.078Z,15.03
2022-08-25T23:07:30.203Z,16.97
2022-08-25T23:10:02.706Z,16.57
2022-08-25T23:12:30.761Z,15.50
2022-08-25T23:14:57.834Z,17.60
2022-08-25T23:17:25.481Z,16.47
2022-08-25T23:19:52.676Z,15.53
2022-08-25T23:22:19.887Z,15.77
2022-08-25T23:24:52.262Z,15.03
2022-08-25T23:27:22.204Z,15.60
2022-08-25T23:29:50.761Z,16.87
2022-08-25T23:32:18.686Z,15.63
2022-08-25T23:34:47.385Z,15.53
2022-08-25T23:37:18.816Z,16.17
2022-08-25T23:39:49.515Z,16.63
2022-08-25T23:42:19.372Z,16.00
2022-08-25T23:44:47.940Z,15.20
2022-08-25T23:47:15.401Z,16.50
2022-08-25T23:49:42.623Z,16.50
2022-08-25T23:52:09.594Z,16.23
2022-08-25T23:54:36.602Z,18.70
2022-08-25T23:57:03.882Z,15.57
2022-08-25T23:59:34.112Z,15.83
